createdAt,value
2022-08-20T00:00:50.228Z,19.10
2022-08-20T00:03:28.986Z,12.70
2022-08-20T00:06:01.927Z,15.65
2022-08-20T00:08:29.575Z,15.82
2022-08-20T00:10:57.218Z,16.20
2022-08-20T00:13:38.927Z,16.77
2022-08-20T00:16:06.875Z,19.80
2022-08-20T00:18:36.808Z,16.42
2022-08-20T00:21:08.852Z,16.45
2022-08-20T00:23:43.590Z,18.33
2022-08-20T00:26:11.750Z,16.65
2022-08-20T00:28:39.296Z,16.13
2022-08-20T00:31:09.154Z,15.93
2022-08-20T00:33:37.487Z,17.55
2022-08-20T00:36:10.582Z,15.63
2022-08-20T00:38:39.066Z,14.07
2022-08-20T00:41:08.476Z,16.55
2022-08-20T00:43:35.083Z,16.52
2022-08-20T00:46:10.306Z,17.42
2022-08-20T00:48:40.417Z,17.10
2022-08-20T00:51:31.019Z,15.60
2022-08-20T00:54:18.931Z,16.33
2022-08-20T00:56:49.839Z,18.60
2022-08-20T00:59:22.687Z,14.10
2022-08-20T01:01:55.519Z,14.68
2022-08-20T01:04:24.755Z,14.80
2022-08-20T01:06:51.644Z,17.77
2022-08-20T01:09:18.351Z,16.23
2022-08-20T01:12:07.629Z,16.48
2022-08-20T01:14:34.386Z,17.55
2022-08-20T01:17:06.127Z,15.65
2022-08-20T01:19:40.965Z,17.60
2022-08-20T01:22:35.031Z,15.52
2022-08-20T01:25:07.886Z,19.73
2022-08-20T01:27:42.493Z,16.75
2022-08-20T01:30:10.750Z,15.75
2022-08-20T01:32:37.471Z,19.80
2022-08-20T01:35:05.565Z,20.00
2022-08-20T01:37:32.400Z,19.15
2022-08-20T01:39:59.431Z,17.38
2022-08-20T01:42:58.853Z,15.63
2022-08-20T01:45:28.114Z,17.67
2022-08-20T01:47:57.873Z,15.52
2022-08-20T01:50:28.656Z,14.85
2022-08-20T01:53:01.510Z,15.18
2022-08-20T01:55:28.235Z,13.70
2022-08-20T01:57:55.308Z,17.25
2022-08-20T02:00:23.804Z,19.80
2022-08-20T02:02:51.837Z,14.23
2022-08-20T02:05:19.729Z,14.75
2022-08-20T02:07:46.752Z,13.10
2022-08-20T02:10:15.570Z,15.02
2022-08-20T02:12:42.313Z,14.63
2022-08-20T02:15:10.483Z,13.90
2022-08-20T02:17:39.104Z,14.93
2022-08-20T02:20:17.718Z,18.70
2022-08-20T02:58:55.267Z,15.60
2022-08-20T03:01:21.979Z,19.55
2022-08-20T03:03:48.757Z,17.95
2022-08-20T03:06:16.452Z,20.40
2022-08-20T03:08:43.372Z,18.73
2022-08-20T03:11:10.530Z,17.38
2022-08-20T03:13:37.531Z,13.85
2022-08-20T03:16:04.799Z,17.08
2022-08-20T03:18:35.818Z,16.90
2022-08-20T03:21:04.763Z,16.95
2022-08-20T03:23:33.807Z,16.02
2022-08-20T03:26:03.899Z,17.20
2022-08-20T03:28:31.897Z,19.50
2022-08-20T03:30:59.354Z,18.20
2022-08-20T03:33:27.514Z,20.73
2022-08-20T03:35:54.266Z,16.48
2022-08-20T03:38:32.442Z,18.60
2022-08-20T03:41:00.947Z,16.75
2022-08-20T03:43:28.240Z,18.98
2022-08-20T03:45:55.078Z,19.30
2022-08-20T03:48:22.282Z,18.70
2022-08-20T03:50:50.663Z,19.48
2022-08-20T03:53:18.059Z,19.33
2022-08-20T03:55:54.082Z,17.60
2022-08-20T03:58:29.948Z,13.57
2022-08-20T04:01:05.915Z,13.87
2022-08-20T04:03:32.891Z,15.98
2022-08-20T04:05:59.583Z,15.40
2022-08-20T04:08:29.327Z,13.07
2022-08-20T04:10:57.637Z,12.70
2022-08-20T04:13:25.508Z,15.25
2022-08-20T04:15:55.517Z,14.63
2022-08-20T04:18:24.186Z,15.15
2022-08-20T04:20:52.364Z,15.18
2022-08-20T04:23:19.698Z,16.27
2022-08-20T04:25:46.838Z,15.43
2022-08-20T04:28:26.799Z,14.07
2022-08-20T04:30:54.682Z,16.40
2022-08-20T04:33:33.253Z,17.45
2022-08-20T04:36:02.848Z,16.30
2022-08-20T04:38:48.256Z,14.43
2022-08-20T04:41:23.131Z,18.58
2022-08-20T04:43:54.710Z,15.82
2022-08-20T04:46:23.768Z,15.30
2022-08-20T04:48:50.760Z,16.75
2022-08-20T04:51:18.651Z,14.77
2022-08-20T04:53:53.196Z,15.23
2022-08-20T04:56:23.908Z,13.35
2022-08-20T04:58:52.537Z,15.23
2022-08-20T05:01:19.946Z,13.45
2022-08-20T05:03:49.522Z,15.82
2022-08-20T05:06:18.011Z,17.38
2022-08-20T05:08:44.984Z,12.73
2022-08-20T05:11:32.602Z,25.05
2022-08-20T05:13:58.722Z,16.90
2022-08-20T05:16:25.495Z,15.85
2022-08-20T05:18:52.997Z,14.45
2022-08-20T05:21:21.129Z,13.95
2022-08-20T05:23:48.981Z,15.40
2022-08-20T05:26:15.842Z,15.30
2022-08-20T05:28:51.288Z,14.65
2022-08-20T05:31:32.388Z,14.00
2022-08-20T05:34:10.016Z,16.35
2022-08-20T05:36:49.666Z,16.00
2022-08-20T05:39:18.132Z,14.35
2022-08-20T05:41:44.792Z,14.20
2022-08-20T05:44:13.935Z,13.73
2022-08-20T05:46:42.733Z,14.32
2022-08-20T05:49:16.163Z,12.23
2022-08-20T05:51:43.699Z,14.13
2022-08-20T05:54:10.893Z,13.05
2022-08-20T05:56:37.732Z,14.35
2022-08-20T05:59:06.429Z,12.18
2022-08-20T06:01:35.400Z,12.48
2022-08-20T06:04:21.018Z,12.82
2022-08-20T06:06:48.406Z,11.35
2022-08-20T06:09:30.753Z,11.82
2022-08-20T06:12:01.236Z,14.18
2022-08-20T06:14:28.103Z,14.82
2022-08-20T06:16:57.282Z,12.73
2022-08-20T06:19:26.333Z,14.20
2022-08-20T06:21:53.836Z,15.35
2022-08-20T06:24:21.200Z,13.05
2022-08-20T06:26:48.031Z,13.38
2022-08-20T06:29:16.116Z,16.52
2022-08-20T06:31:42.787Z,16.70
2022-08-20T06:34:09.478Z,14.68
2022-08-20T06:36:36.157Z,16.92
2022-08-20T06:39:02.971Z,16.42
2022-08-20T06:41:36.200Z,16.52
2022-08-20T06:44:04.748Z,15.40
2022-08-20T06:46:32.234Z,17.13
2022-08-20T06:48:59.427Z,15.98
2022-08-20T06:51:26.086Z,14.02
2022-08-20T06:53:52.850Z,15.93
2022-08-20T06:56:19.490Z,14.60
2022-08-20T06:58:46.171Z,15.48
2022-08-20T07:01:13.799Z,13.70
2022-08-20T07:03:54.336Z,13.02
2022-08-20T07:06:25.554Z,14.05
2022-08-20T07:08:53.414Z,12.77
2022-08-20T07:11:26.319Z,15.63
2022-08-20T07:13:55.831Z,12.82
2022-08-20T07:16:22.642Z,12.98
2022-08-20T07:18:49.298Z,15.02
2022-08-20T07:21:17.287Z,12.63
2022-08-20T07:23:44.175Z,10.50
2022-08-20T07:26:10.958Z,11.40
2022-08-20T07:28:37.647Z,13.15
2022-08-20T07:31:23.230Z,12.35
2022-08-20T07:33:50.560Z,10.63
2022-08-20T07:36:17.938Z,10.25
2022-08-20T07:38:47.170Z,10.05
2022-08-20T07:41:14.961Z,9.73
2022-08-20T07:43:46.425Z,9.60
2022-08-20T07:46:21.314Z,10.82
2022-08-20T07:48:50.227Z,10.43
2022-08-20T07:51:19.820Z,8.30
2022-08-20T07:53:47.820Z,7.85
2022-08-20T07:56:21.315Z,7.57
2022-08-20T07:58:51.057Z,6.78
2022-08-20T08:01:25.769Z,7.53
2022-08-20T08:03:52.907Z,6.22
2022-08-20T08:06:29.469Z,9.27
2022-08-20T08:09:10.230Z,6.72
2022-08-20T08:11:40.088Z,6.65
2022-08-20T08:14:11.536Z,6.88
2022-08-20T08:16:39.103Z,5.13
2022-08-20T08:19:09.534Z,5.60
2022-08-20T08:21:36.318Z,4.88
2022-08-20T08:24:03.349Z,6.03
2022-08-20T08:26:30.223Z,4.90
2022-08-20T08:28:58.514Z,4.57
2022-08-20T08:31:25.927Z,6.70
2022-08-20T08:33:52.800Z,5.15
2022-08-20T08:36:19.526Z,5.10
2022-08-20T08:38:46.344Z,5.28
2022-08-20T08:41:20.806Z,7.28
2022-08-20T08:43:53.082Z,4.32
2022-08-20T08:48:53.324Z,4.30
2022-08-20T08:51:30.079Z,4.88
2022-08-20T08:53:57.390Z,3.92
2022-08-20T08:56:27.322Z,4.50
2022-08-20T08:58:55.573Z,5.13
2022-08-20T09:01:53.914Z,4.00
2022-08-20T09:04:16.161Z,4.47
2022-08-20T09:06:43.589Z,4.82
2022-08-20T09:09:27.704Z,3.63
2022-08-20T09:12:03.228Z,4.78
2022-08-20T09:14:29.967Z,5.65
2022-08-20T09:16:56.623Z,5.10
2022-08-20T09:19:23.352Z,5.35
2022-08-20T09:21:50.132Z,5.80
2022-08-20T09:24:17.059Z,5.40
2022-08-20T09:26:43.822Z,5.75
2022-08-20T09:29:10.626Z,5.88
2022-08-20T09:31:38.337Z,7.93
2022-08-20T09:34:06.020Z,5.90
2022-08-20T09:36:33.238Z,6.00
2022-08-20T09:39:00.721Z,5.80
2022-08-20T09:41:29.984Z,8.32
2022-08-20T09:43:56.672Z,10.65
2022-08-20T09:46:27.495Z,9.57
2022-08-20T09:48:54.778Z,9.77
2022-08-20T09:51:21.980Z,9.15
2022-08-20T09:53:49.188Z,7.00
2022-08-20T09:56:16.602Z,6.35
2022-08-20T09:58:52.051Z,7.57
2022-08-20T10:01:21.080Z,6.82
2022-08-20T10:03:49.128Z,6.72
2022-08-20T10:06:17.906Z,7.30
2022-08-20T10:08:44.615Z,6.72
2022-08-20T10:11:11.760Z,7.32
2022-08-20T10:13:38.763Z,6.00
2022-08-20T10:16:05.781Z,7.60
2022-08-20T10:18:32.493Z,9.35
2022-08-20T10:20:59.401Z,6.80
2022-08-20T10:23:26.201Z,6.60
2022-08-20T10:25:52.895Z,7.75
2022-08-20T10:28:19.798Z,5.82
2022-08-20T10:30:46.898Z,5.93
2022-08-20T10:33:13.623Z,5.47
2022-08-20T10:35:40.306Z,3.95
2022-08-20T10:38:06.961Z,4.32
2022-08-20T10:40:33.624Z,3.55
2022-08-20T10:43:00.351Z,27.30
2022-08-20T10:45:27.139Z,6.50
2022-08-20T10:47:53.893Z,4.40
2022-08-20T10:50:20.665Z,4.45
2022-08-20T10:52:47.678Z,3.75
2022-08-20T10:55:14.624Z,3.00
2022-08-20T10:57:43.574Z,3.22
2022-08-20T11:00:16.714Z,3.78
2022-08-20T11:02:43.477Z,2.28
2022-08-20T11:05:10.269Z,3.42
2022-08-20T11:07:59.842Z,1.00
2022-08-20T11:10:29.336Z,2.75
2022-08-20T11:12:56.323Z,2.75
2022-08-20T11:15:23.554Z,1.27
2022-08-20T11:17:50.265Z,2.80
2022-08-20T11:20:19.497Z,1.70
2022-08-20T11:22:46.557Z,3.65
2022-08-20T11:25:13.413Z,2.47
2022-08-20T11:27:44.181Z,2.70
2022-08-20T11:30:15.303Z,2.08
2022-08-20T11:32:41.997Z,1.98
2022-08-20T11:35:38.323Z,2.03
2022-08-20T11:37:57.415Z,2.60
2022-08-20T11:40:26.142Z,1.98
2022-08-20T11:43:13.652Z,3.15
2022-08-20T11:45:39.959Z,2.35
2022-08-20T11:48:06.655Z,2.20
2022-08-20T11:50:33.876Z,2.58
2022-08-20T11:53:01.536Z,2.70
2022-08-20T11:55:30.018Z,3.28
2022-08-20T11:58:00.442Z,2.67
2022-08-20T12:00:32.272Z,2.20
2022-08-20T12:03:05.000Z,3.20
2022-08-20T12:05:32.501Z,2.60
2022-08-20T12:08:01.274Z,3.45
2022-08-20T12:10:28.578Z,4.65
2022-08-20T12:12:56.664Z,2.78
2022-08-20T12:15:24.204Z,3.30
2022-08-20T12:17:50.923Z,2.50
2022-08-20T12:20:17.904Z,3.40
2022-08-20T12:22:44.651Z,2.70
2022-08-20T12:25:12.740Z,3.65
2022-08-20T12:27:42.704Z,4.03
2022-08-20T12:30:14.669Z,3.40
2022-08-20T12:32:42.306Z,4.22
2022-08-20T12:35:10.743Z,2.78
2022-08-20T12:37:37.914Z,2.60
2022-08-20T12:40:08.612Z,4.03
2022-08-20T12:42:35.729Z,3.10
2022-08-20T12:45:02.818Z,3.67
2022-08-20T12:47:39.138Z,2.53
2022-08-20T12:50:16.635Z,2.63
2022-08-20T12:52:43.937Z,3.58
2022-08-20T12:55:12.660Z,3.45
2022-08-20T12:58:00.863Z,2.95
2022-08-20T13:00:34.694Z,3.53
2022-08-20T13:03:03.578Z,2.85
2022-08-20T13:05:31.071Z,2.83
2022-08-20T13:07:58.194Z,2.35
2022-08-20T13:10:28.144Z,2.25
2022-08-20T13:12:55.784Z,4.00
2022-08-20T13:15:23.716Z,3.65
2022-08-20T13:17:59.226Z,2.30
2022-08-20T13:20:34.062Z,3.40
2022-08-20T13:23:03.033Z,2.15
2022-08-20T13:25:29.865Z,2.50
2022-08-20T13:27:58.980Z,2.33
2022-08-20T13:30:26.384Z,3.00
2022-08-20T13:32:53.178Z,2.47
2022-08-20T13:35:20.139Z,2.92
2022-08-20T13:37:48.783Z,2.92
2022-08-20T13:40:15.717Z,2.97
2022-08-20T13:42:42.450Z,2.20
2022-08-20T13:45:09.601Z,2.00
2022-08-20T13:47:37.605Z,2.22
2022-08-20T13:50:11.410Z,1.67
2022-08-20T13:52:39.371Z,2.00
2022-08-20T13:55:11.813Z,2.00
2022-08-20T13:57:39.252Z,2.20
2022-08-20T14:00:10.962Z,2.70
2022-08-20T14:02:37.926Z,2.40
2022-08-20T14:05:05.203Z,2.22
2022-08-20T14:07:32.927Z,2.70
2022-08-20T14:10:13.831Z,2.85
2022-08-20T14:12:40.650Z,3.00
2022-08-20T14:15:09.065Z,2.67
2022-08-20T14:17:38.503Z,2.60
2022-08-20T14:20:08.178Z,2.92
2022-08-20T14:22:36.839Z,3.67
2022-08-20T14:25:05.952Z,2.83
2022-08-20T14:27:33.947Z,3.47
2022-08-20T14:30:08.352Z,2.97
2022-08-20T14:32:35.626Z,3.63
2022-08-20T14:35:04.360Z,3.03
2022-08-20T14:37:37.998Z,2.80
2022-08-20T14:40:08.157Z,2.40
2022-08-20T14:42:34.942Z,2.42
2022-08-20T14:45:02.240Z,2.28
2022-08-20T14:47:32.893Z,2.25
2022-08-20T14:50:07.177Z,2.42
2022-08-20T14:52:36.719Z,2.60
2022-08-20T14:55:06.634Z,2.95
2022-08-20T14:57:34.073Z,2.33
2022-08-20T15:00:01.154Z,1.42
2022-08-20T15:02:27.915Z,2.25
2022-08-20T15:04:55.733Z,1.23
2022-08-20T15:07:22.442Z,1.35
2022-08-20T15:09:49.255Z,2.50
2022-08-20T15:12:16.078Z,2.10
2022-08-20T15:14:42.851Z,4.43
2022-08-20T15:17:23.565Z,2.28
2022-08-20T15:19:50.778Z,3.20
2022-08-20T15:22:18.469Z,3.00
2022-08-20T15:24:45.240Z,2.42
2022-08-20T15:27:23.351Z,2.08
2022-08-20T15:29:51.214Z,1.60
2022-08-20T15:32:18.502Z,2.33
2022-08-20T15:34:45.500Z,2.58
2022-08-20T15:37:21.018Z,1.98
2022-08-20T15:39:49.413Z,2.40
2022-08-20T15:42:17.193Z,2.45
2022-08-20T15:44:44.280Z,2.85
2022-08-20T15:47:22.443Z,2.70
2022-08-20T15:49:59.775Z,3.80
2022-08-20T15:52:30.861Z,2.63
2022-08-20T15:54:59.932Z,3.40
2022-08-20T15:57:53.967Z,4.00
2022-08-20T16:00:24.353Z,3.55
2022-08-20T16:03:02.229Z,3.30
2022-08-20T16:05:55.951Z,3.25
2022-08-20T16:08:31.179Z,2.88
2022-08-20T16:10:58.694Z,2.85
2022-08-20T16:13:38.732Z,2.42
2022-08-20T16:16:10.791Z,2.03
2022-08-20T16:18:40.091Z,2.70
2022-08-20T16:21:12.278Z,2.78
2022-08-20T16:26:12.831Z,5.15
2022-08-20T16:31:20.470Z,2.92
2022-08-20T16:34:34.478Z,2.92
2022-08-20T16:37:26.510Z,3.35
2022-08-20T16:40:15.884Z,2.93
2022-08-20T16:42:46.086Z,3.38
2022-08-20T16:45:20.417Z,3.40
2022-08-20T16:47:49.234Z,2.75
2022-08-20T16:50:22.551Z,1.77
2022-08-20T16:52:51.564Z,2.33
2022-08-20T16:55:22.985Z,2.85
2022-08-20T16:57:52.795Z,3.00
2022-08-20T17:00:30.449Z,2.25
2022-08-20T17:03:00.338Z,3.40
2022-08-20T17:05:37.415Z,2.70
2022-08-20T17:08:07.143Z,3.10
2022-08-20T17:11:01.218Z,2.03
2022-08-20T17:13:34.240Z,4.20
2022-08-20T17:16:05.483Z,2.65
2022-08-20T17:18:35.554Z,2.33
2022-08-20T17:21:17.516Z,2.30
2022-08-20T17:23:56.196Z,3.22
2022-08-20T17:26:48.126Z,2.95
2022-08-20T17:29:21.372Z,4.55
2022-08-20T17:31:54.846Z,2.70
2022-08-20T17:34:28.998Z,3.65
2022-08-20T17:37:03.639Z,4.20
2022-08-20T17:39:31.603Z,4.90
2022-08-20T17:42:10.204Z,2.80
2022-08-20T17:44:47.472Z,3.78
2022-08-20T17:47:19.115Z,3.05
2022-08-20T17:49:57.413Z,4.47
2022-08-20T17:52:38.438Z,3.80
2022-08-20T17:55:07.218Z,2.42
2022-08-20T17:57:38.327Z,2.30
2022-08-20T18:00:13.743Z,2.67
2022-08-20T18:02:41.261Z,3.60
2022-08-20T18:05:28.705Z,3.13
2022-08-20T18:08:13.416Z,2.63
2022-08-20T18:10:56.982Z,4.20
2022-08-20T18:13:55.088Z,2.95
2022-08-20T18:16:44.018Z,4.55
2022-08-20T18:19:21.575Z,4.82
2022-08-20T18:22:11.414Z,5.68
2022-08-20T18:25:21.725Z,3.67
2022-08-20T18:27:52.886Z,5.43
2022-08-20T18:30:22.605Z,5.75
2022-08-20T18:33:00.266Z,4.78
2022-08-20T18:35:39.512Z,2.65
2022-08-20T18:38:32.171Z,3.78
2022-08-20T18:41:32.755Z,3.78
2022-08-20T18:44:26.325Z,3.33
2022-08-20T18:46:56.139Z,4.65
2022-08-20T18:49:36.022Z,3.67
2022-08-20T18:52:18.108Z,3.03
2022-08-20T18:54:54.675Z,3.47
2022-08-20T18:57:28.556Z,3.95
2022-08-20T19:00:15.603Z,3.53
2022-08-20T19:02:59.434Z,3.92
2022-08-20T19:05:46.423Z,2.83
2022-08-20T19:11:43.455Z,3.55
2022-08-20T19:14:20.161Z,5.18
2022-08-20T19:16:56.015Z,4.28
2022-08-20T19:19:26.023Z,2.80
2022-08-20T19:21:56.307Z,3.53
2022-08-20T19:24:33.758Z,3.53
2022-08-20T19:27:04.830Z,3.92
2022-08-20T19:29:47.145Z,3.10
2022-08-20T19:32:21.314Z,2.90
2022-08-20T19:34:53.835Z,4.68
2022-08-20T19:37:34.847Z,3.60
2022-08-20T19:40:07.794Z,3.42
2022-08-20T19:42:43.011Z,3.67
2022-08-20T19:45:24.138Z,5.15
2022-08-20T19:48:10.508Z,4.53
2022-08-20T19:50:47.129Z,3.83
2022-08-20T19:53:30.147Z,4.03
2022-08-20T19:56:01.870Z,5.35
2022-08-20T19:58:31.192Z,6.68
2022-08-20T20:00:58.280Z,7.20
2022-08-20T20:03:29.975Z,6.28
2022-08-20T20:06:21.034Z,8.10
2022-08-20T20:09:01.378Z,7.13
2022-08-20T20:11:35.953Z,7.53
2022-08-20T20:14:15.010Z,5.00
2022-08-20T20:16:42.435Z,6.68
2022-08-20T20:19:28.123Z,6.45
2022-08-20T20:22:07.588Z,7.63
2022-08-20T20:24:50.772Z,8.15
2022-08-20T20:27:25.942Z,4.82
2022-08-20T20:30:00.492Z,5.88
2022-08-20T20:32:28.350Z,6.45
2022-08-20T20:34:58.301Z,8.85
2022-08-20T20:37:42.665Z,7.43
2022-08-20T20:43:13.995Z,4.45
2022-08-20T20:45:45.683Z,5.70
2022-08-20T20:48:21.339Z,7.30
2022-08-20T20:50:50.982Z,7.32
2022-08-20T20:53:53.396Z,4.63
2022-08-20T20:56:36.684Z,3.55
2022-08-20T20:59:07.014Z,5.35
2022-08-20T21:01:48.811Z,5.50
2022-08-20T21:04:17.969Z,6.28
2022-08-20T21:06:44.995Z,4.95
2022-08-20T21:09:12.068Z,6.30
2022-08-20T21:11:38.971Z,5.80
2022-08-20T21:14:05.862Z,3.58
2022-08-20T21:16:32.801Z,3.70
2022-08-20T21:19:06.408Z,4.25
2022-08-20T21:21:33.633Z,5.15
2022-08-20T21:24:00.546Z,5.30
2022-08-20T21:26:28.491Z,6.72
2022-08-20T21:28:55.748Z,6.15
2022-08-20T21:31:26.161Z,4.15
2022-08-20T21:33:53.140Z,5.13
2022-08-20T21:36:20.050Z,4.85
2022-08-20T21:38:47.071Z,4.22
2022-08-20T21:41:14.772Z,6.07
2022-08-20T21:43:42.776Z,4.53
2022-08-20T21:46:12.833Z,4.10
2022-08-20T21:48:41.741Z,4.10
2022-08-20T21:51:11.071Z,8.50
2022-08-20T21:53:38.138Z,5.40
2022-08-20T21:56:05.780Z,5.57
2022-08-20T21:58:32.835Z,5.43
2022-08-20T22:01:03.033Z,5.20
2022-08-20T22:03:38.644Z,4.93
2022-08-20T22:06:09.538Z,4.88
2022-08-20T22:08:36.648Z,4.88
2022-08-20T22:11:05.896Z,5.18
2022-08-20T22:13:33.760Z,5.22
2022-08-20T22:16:07.429Z,6.53
2022-08-20T22:18:35.332Z,6.03
2022-08-20T22:21:03.195Z,8.48
2022-08-20T22:23:30.248Z,4.70
2022-08-20T22:25:57.170Z,5.20
2022-08-20T22:28:24.287Z,7.13
2022-08-20T22:30:51.386Z,4.68
2022-08-20T22:33:22.190Z,4.95
2022-08-20T22:35:52.666Z,5.43
2022-08-20T22:38:19.807Z,5.32
2022-08-20T22:40:47.639Z,3.75
2022-08-20T22:43:15.050Z,5.90
2022-08-20T22:45:44.513Z,6.55
2022-08-20T22:48:14.669Z,4.05
2022-08-20T22:50:41.775Z,4.25
2022-08-20T22:53:09.079Z,4.22
2022-08-20T22:55:36.236Z,4.45
2022-08-20T22:58:03.757Z,5.70
2022-08-20T23:00:32.722Z,3.92
2022-08-20T23:03:01.223Z,5.03
2022-08-20T23:05:31.584Z,5.05
2022-08-20T23:07:59.974Z,5.13
2022-08-20T23:10:28.951Z,4.15
2022-08-20T23:12:57.286Z,4.53
2022-08-20T23:15:26.036Z,4.07
2022-08-20T23:17:58.639Z,6.00
2022-08-20T23:20:26.436Z,3.55
2022-08-20T23:22:54.833Z,3.67
2022-08-20T23:25:22.151Z,3.90
2022-08-20T23:27:51.914Z,6.38
2022-08-20T23:30:21.543Z,3.70
2022-08-20T23:32:48.718Z,3.50
2022-08-20T23:35:16.447Z,4.40
2022-08-20T23:37:48.936Z,4.22
2022-08-20T23:40:17.507Z,4.20
2022-08-20T23:42:54.377Z,3.75
2022-08-20T23:45:21.873Z,2.85
2022-08-20T23:47:49.952Z,3.47
2022-08-20T23:50:20.171Z,2.72
2022-08-20T23:52:47.697Z,3.13
2022-08-20T23:55:14.631Z,3.55
2022-08-20T23:57:41.999Z,2.65
